Time;durP1;ratioP1;P1;durP2;ratioP2;P2;SDS_P1;SDS_P2;PMS_P1;PMS_P2;Temp;Humidity;BMP_temperature;BMP_pressure;BME280_temperature;BME280_humidity;BME280_pressure;Samples;Min_cycle;Max_cycle;Signal;HPM_P1;HPM_P2
2022/05/03 00:00:26;;;;;;;;;;;;;;;2.27;31.73;97176.16;6356475;27;20383;-65
2022/05/03 00:03:29;;;;;;;;;;;;;;;2.25;32.47;97177.00;6373973;27;20340;-64
2022/05/03 00:06:48;;;;;;;;;;;;;;;2.22;31.56;97179.69;6374530;27;19923;-64
2022/05/03 00:10:01;;;;;;;;;;;;;;;2.20;32.10;97173.69;6374297;27;19945;-64
2022/05/03 00:13:03;;;;;;;;;;;;;;;2.20;32.43;97168.50;6354916;27;19931;-64
2022/05/03 00:16:05;;;;;;;;;;;;;;;2.22;32.17;97174.50;6373047;27;19923;-65
2022/05/03 00:19:06;;;;;;;;;;;;;;;2.21;32.62;97172.81;6373133;27;20316;-64
2022/05/03 00:22:07;;;;;;;;;;;;;;;2.20;31.69;97171.09;6373018;27;19930;-64
2022/05/03 00:25:09;;;;;;;;;;;;;;;2.19;31.70;97174.59;6373221;27;20353;-64
2022/05/03 00:28:12;;;;;;;;;;;;;;;2.18;32.01;97177.22;6373660;27;20381;-65
2022/05/03 00:31:14;;;;;;;;;;;;;;;2.18;32.25;97170.31;6372901;27;19923;-63
2022/05/03 00:34:16;;;;;;;;;;;;;;;2.19;32.67;97174.59;6373295;27;19923;-64
2022/05/03 00:37:20;;;;;;;;;;;;;;;2.20;32.19;97180.63;6372384;27;19963;-63
2022/05/03 00:40:28;;;;;;;;;;;;;;;2.19;32.62;97182.38;6373214;27;20003;-64
2022/05/03 00:43:39;;;;;;;;;;;;;;;2.24;32.19;97183.13;6373185;27;19927;-64
2022/05/03 00:46:40;;;;;;;;;;;;;;;2.42;31.88;97181.75;6372952;27;19923;-64
2022/05/03 00:49:43;;;;;;;;;;;;;;;2.54;32.11;97179.72;6372833;27;19924;-64
2022/05/03 00:52:49;;;;;;;;;;;;;;;2.55;32.15;97187.47;6353968;27;20335;-63
2022/05/03 00:55:51;;;;;;;;;;;;;;;2.56;32.12;97183.97;6372605;27;19923;-64
2022/05/03 00:59:10;;;;;;;;;;;;;;;2.60;31.70;97190.75;6373146;27;19923;-64
2022/05/03 01:02:13;;;;;;;;;;;;;;;2.69;31.71;97193.13;6372766;27;20304;-64
2022/05/03 01:05:24;;;;;;;;;;;;;;;2.81;35.97;97193.66;6372845;27;19942;-64
2022/05/03 01:08:25;;;;;;;;;;;;;;;2.96;31.80;97195.81;6371869;27;19996;-64
2022/05/03 01:11:34;;;;;;;;;;;;;;;2.97;31.86;97205.31;6371872;27;19923;-63
2022/05/03 01:14:56;;;;;;;;;;;;;;;2.91;32.06;97208.09;6372078;27;19923;-64
2022/05/03 01:18:06;;;;;;;;;;;;;;;2.85;32.15;97210.88;6371853;27;19930;-64
2022/05/03 01:21:07;;;;;;;;;;;;;;;2.85;32.63;97216.06;6371361;27;19923;-63
2022/05/03 01:24:28;;;;;;;;;;;;;;;2.87;31.89;97209.94;6371279;27;19924;-63
2022/05/03 01:27:49;;;;;;;;;;;;;;;2.90;32.52;97214.19;6372225;27;19924;-63
2022/05/03 01:30:50;;;;;;;;;;;;;;;2.96;32.02;97218.38;6371534;27;19930;-64
2022/05/03 01:33:57;;;;;;;;;;;;;;;3.03;32.40;97225.06;6371162;27;19924;-62
2022/05/03 01:37:05;;;;;;;;;;;;;;;3.08;32.54;97220.59;6371959;27;19923;-64
2022/05/03 01:40:11;;;;;;;;;;;;;;;3.14;34.56;97217.81;6371215;27;20323;-64
2022/05/03 01:43:20;;;;;;;;;;;;;;;3.23;33.46;97224.47;6370872;27;19929;-63
2022/05/03 01:46:25;;;;;;;;;;;;;;;3.30;32.75;97223.41;6372050;27;19923;-64
2022/05/03 01:53:15;;;;;;;;;;;;;;;3.47;32.06;97236.75;6352743;28;20308;-63
2022/05/03 01:56:24;;;;;;;;;;;;;;;3.54;31.57;97233.06;6370955;28;19930;-64
2022/05/03 01:59:32;;;;;;;;;;;;;;;3.60;32.00;97232.03;6370392;28;19930;-64
2022/05/03 02:02:39;;;;;;;;;;;;;;;3.68;31.41;97239.56;6371555;28;19923;-64
2022/05/03 02:05:43;;;;;;;;;;;;;;;3.74;32.25;97239.41;6371589;28;19927;-64
2022/05/03 02:09:04;;;;;;;;;;;;;;;3.80;32.22;97234.84;6370755;28;19931;-63
2022/05/03 02:12:07;;;;;;;;;;;;;;;3.90;32.39;97245.78;6370170;28;19930;-63
2022/05/03 02:15:11;;;;;;;;;;;;;;;4.02;31.58;97248.03;6371443;28;20300;-63
2022/05/03 02:18:15;;;;;;;;;;;;;;;4.16;32.83;97251.91;6371019;28;19930;-64
2022/05/03 02:21:29;;;;;;;;;;;;;;;4.26;32.08;97253.31;6371267;28;19930;-64
2022/05/03 02:24:49;;;;;;;;;;;;;;;4.38;31.63;97252.88;6352407;28;19927;-64
2022/05/03 02:27:57;;;;;;;;;;;;;;;4.52;31.59;97256.78;6369881;28;19924;-64
2022/05/03 02:31:02;;;;;;;;;;;;;;;4.67;31.27;97258.84;6352381;28;19924;-64
2022/05/03 02:34:23;;;;;;;;;;;;;;;4.86;32.05;97259.88;6370606;28;19923;-64
2022/05/03 02:37:25;;;;;;;;;;;;;;;5.19;31.07;97256.97;6371095;28;19924;-63
2022/05/03 02:40:31;;;;;;;;;;;;;;;5.36;30.66;97249.34;6371107;28;19923;-64
2022/05/03 02:43:33;;;;;;;;;;;;;;;5.61;30.86;97253.66;6371079;28;20404;-64
2022/05/03 02:46:46;;;;;;;;;;;;;;;5.84;30.87;97263.19;6371027;28;19930;-64
2022/05/03 02:49:50;;;;;;;;;;;;;;;5.98;30.23;97266.13;6369846;28;19924;-64
2022/05/03 02:53:06;;;;;;;;;;;;;;;6.16;30.15;97261.91;6371057;28;20045;-63
2022/05/03 02:56:27;;;;;;;;;;;;;;;6.32;30.61;97264.75;6371102;28;19931;-63
2022/05/03 03:03:04;;;;;;;;;;;;;;;6.72;29.88;97260.44;6375517;27;19924;-64
2022/05/03 03:06:12;;;;;;;;;;;;;;;6.92;29.54;97265.63;6375485;27;20071;-64
2022/05/03 03:09:20;;;;;;;;;;;;;;;7.08;29.39;97255.34;6375629;27;19923;-64
2022/05/03 03:12:29;;;;;;;;;;;;;;;7.24;28.90;97257.28;6375041;27;19977;-64
2022/05/03 03:15:33;;;;;;;;;;;;;;;7.41;28.80;97266.03;6357005;27;19930;-63
2022/05/03 03:18:34;;;;;;;;;;;;;;;7.53;28.70;97259.41;6375238;27;19923;-63
2022/05/03 03:21:37;;;;;;;;;;;;;;;7.56;28.51;97261.88;6356010;27;20335;-64
2022/05/03 03:24:38;;;;;;;;;;;;;;;7.53;28.44;97262.03;6355662;27;20403;-65
2022/05/03 03:27:42;;;;;;;;;;;;;;;7.56;28.58;97264.50;6374066;27;19945;-64
2022/05/03 03:30:44;;;;;;;;;;;;;;;7.70;28.25;97261.25;6374127;27;19928;-64
2022/05/03 03:33:46;;;;;;;;;;;;;;;7.76;28.41;97262.72;6374149;27;20699;-64
2022/05/03 03:36:49;;;;;;;;;;;;;;;8.01;27.54;97265.00;6374678;27;19923;-64
2022/05/03 03:39:51;;;;;;;;;;;;;;;8.00;27.83;97261.53;6374143;27;19930;-65
2022/05/03 03:42:52;;;;;;;;;;;;;;;8.04;27.62;97264.88;6374543;27;19924;-64
2022/05/03 03:45:57;;;;;;;;;;;;;;;8.07;27.39;97260.34;6374724;27;19931;-63
2022/05/03 03:49:01;;;;;;;;;;;;;;;8.19;27.51;97263.28;6374587;27;19919;-63
2022/05/03 03:52:06;;;;;;;;;;;;;;;8.47;26.98;97253.16;6373412;27;19924;-64
2022/05/03 03:55:10;;;;;;;;;;;;;;;8.62;26.63;97255.91;6373069;27;19919;-65
2022/05/03 03:58:14;;;;;;;;;;;;;;;8.67;26.66;97249.50;6374388;27;19924;-63
2022/05/03 04:01:15;;;;;;;;;;;;;;;8.73;26.76;97248.34;6373095;27;20412;-64
2022/05/03 04:04:18;;;;;;;;;;;;;;;8.85;26.79;97241.63;6373907;27;19930;-65
2022/05/03 04:07:19;;;;;;;;;;;;;;;9.09;25.98;97244.75;6373892;27;20316;-63
2022/05/03 04:10:23;;;;;;;;;;;;;;;9.07;26.10;97242.19;6374082;27;19924;-64
2022/05/03 04:13:24;;;;;;;;;;;;;;;9.17;25.92;97237.28;6371839;27;19923;-64
2022/05/03 04:16:25;;;;;;;;;;;;;;;9.22;25.88;97237.88;6372714;27;20303;-64
2022/05/03 04:19:26;;;;;;;;;;;;;;;9.36;25.77;97238.00;6337594;27;19923;-64
2022/05/03 04:22:31;;;;;;;;;;;;;;;9.54;25.60;97237.91;6373291;27;19979;-64
2022/05/03 04:25:38;;;;;;;;;;;;;;;9.66;25.12;97229.38;6373515;27;20391;-64
2022/05/03 04:28:41;;;;;;;;;;;;;;;9.74;25.11;97232.44;6373463;27;20376;-64
2022/05/03 04:31:44;;;;;;;;;;;;;;;10.00;24.40;97230.13;6372496;27;20308;-64
2022/05/03 04:34:48;;;;;;;;;;;;;;;10.07;24.42;97239.34;6373466;27;19919;-64
2022/05/03 04:37:49;;;;;;;;;;;;;;;10.22;24.27;97243.72;6373280;27;19923;-64
2022/05/03 04:40:57;;;;;;;;;;;;;;;10.48;23.66;97238.78;6372270;27;20300;-65
2022/05/03 04:43:58;;;;;;;;;;;;;;;11.01;23.30;97247.88;6372143;27;19923;-65
2022/05/03 04:47:02;;;;;;;;;;;;;;;14.94;20.43;97244.84;6373106;27;19923;-65
2022/05/03 04:50:03;;;;;;;;;;;;;;;20.11;17.03;97254.06;6372857;27;19924;-65
2022/05/03 04:53:05;;;;;;;;;;;;;;;24.53;14.58;97268.78;6373009;27;19930;-65
2022/05/03 04:56:06;;;;;;;;;;;;;;;27.52;13.48;97269.31;6372784;27;19923;-64
2022/05/03 04:59:09;;;;;;;;;;;;;;;29.86;12.83;97261.66;6372611;27;19984;-65
2022/05/03 05:02:13;;;;;;;;;;;;;;;32.65;11.53;97267.72;6372568;27;19924;-65
2022/05/03 05:05:15;;;;;;;;;;;;;;;35.28;9.10;97266.03;6371404;27;19923;-64
2022/05/03 05:08:19;;;;;;;;;;;;;;;37.61;10.05;97264.00;6354512;27;20013;-64
2022/05/03 05:11:22;;;;;;;;;;;;;;;37.48;7.29;97265.28;6372335;27;20281;-65
2022/05/03 05:14:25;;;;;;;;;;;;;;;37.15;7.35;97260.88;6371343;27;19965;-65
2022/05/03 05:17:26;;;;;;;;;;;;;;;37.44;7.38;97259.44;6371602;27;19923;-64
2022/05/03 05:20:31;;;;;;;;;;;;;;;38.26;6.81;97265.50;6371972;27;19923;-65
2022/05/03 05:23:37;;;;;;;;;;;;;;;39.18;6.74;97253.97;6371847;27;19924;-65
2022/05/03 05:26:43;;;;;;;;;;;;;;;40.70;5.76;97262.28;6372088;27;20000;-65
2022/05/03 05:29:44;;;;;;;;;;;;;;;41.83;5.86;97257.56;6371975;27;19930;-65
2022/05/03 05:32:45;;;;;;;;;;;;;;;42.73;5.26;97255.16;6372037;27;19931;-64
2022/05/03 05:35:51;;;;;;;;;;;;;;;42.34;5.25;97251.50;6371742;27;20390;-65
2022/05/03 05:38:53;;;;;;;;;;;;;;;42.97;4.11;97252.34;6353358;27;19928;-64
2022/05/03 05:41:56;;;;;;;;;;;;;;;43.17;4.67;97254.81;6371489;27;20429;-64
2022/05/03 05:45:00;;;;;;;;;;;;;;;43.59;4.60;97252.22;6371722;27;20021;-64
2022/05/03 05:48:03;;;;;;;;;;;;;;;44.59;4.61;97256.13;6371756;27;19924;-65
2022/05/03 05:51:09;;;;;;;;;;;;;;;45.88;4.07;97251.94;6371793;27;20017;-64
2022/05/03 05:54:11;;;;;;;;;;;;;;;46.71;3.99;97259.66;6352858;27;19943;-65
2022/05/03 05:57:12;;;;;;;;;;;;;;;47.06;3.43;97244.97;6352492;28;19924;-64
2022/05/03 06:00:13;;;;;;;;;;;;;;;47.65;3.18;97248.84;6370668;27;20415;-64
2022/05/03 06:03:15;;;;;;;;;;;;;;;48.02;3.17;97240.84;6370424;28;19930;-65
2022/05/03 06:06:16;;;;;;;;;;;;;;;48.12;2.27;97243.25;6370664;28;19930;-65
2022/05/03 06:09:19;;;;;;;;;;;;;;;46.79;2.66;97221.81;6371516;28;19985;-64
2022/05/03 06:12:23;;;;;;;;;;;;;;;46.16;2.78;97231.47;6371155;28;19924;-65
2022/05/03 06:15:26;;;;;;;;;;;;;;;46.44;2.16;97226.50;6370823;28;19923;-65
2022/05/03 06:18:29;;;;;;;;;;;;;;;47.67;2.79;97235.34;6371315;28;19927;-65
2022/05/03 06:21:32;;;;;;;;;;;;;;;48.60;2.16;97237.63;6353235;28;19927;-65
2022/05/03 06:24:33;;;;;;;;;;;;;;;48.72;2.16;97229.34;6370619;28;19970;-64
2022/05/03 06:27:41;;;;;;;;;;;;;;;49.12;1.97;97237.25;6370581;28;19930;-65
2022/05/03 06:30:44;;;;;;;;;;;;;;;49.00;2.07;97230.44;6371208;28;19923;-64
2022/05/03 06:33:48;;;;;;;;;;;;;;;48.63;2.10;97223.00;6370491;27;19931;-64
2022/05/03 06:36:51;;;;;;;;;;;;;;;47.99;1.66;97212.78;6374322;27;20385;-64
2022/05/03 06:39:52;;;;;;;;;;;;;;;46.04;1.81;97218.19;6376027;27;20307;-65
2022/05/03 06:42:54;;;;;;;;;;;;;;;45.00;1.32;97207.19;6375205;27;19930;-66
2022/05/03 06:45:56;;;;;;;;;;;;;;;46.20;1.68;97213.78;6374558;27;19923;-64
2022/05/03 06:48:59;;;;;;;;;;;;;;;46.95;1.33;97200.69;6376302;27;19923;-65
2022/05/03 06:52:00;;;;;;;;;;;;;;;48.44;1.50;97206.66;6374988;27;20304;-65
2022/05/03 06:55:05;;;;;;;;;;;;;;;49.45;1.45;97209.34;6375491;27;19923;-65
2022/05/03 06:58:07;;;;;;;;;;;;;;;50.36;0.63;97222.44;6356630;27;20026;-65
2022/05/03 07:01:11;;;;;;;;;;;;;;;49.25;0.71;97205.44;6375402;27;20429;-65
2022/05/03 07:04:14;;;;;;;;;;;;;;;48.50;0.66;97189.41;6375600;27;19923;-64
2022/05/03 07:07:16;;;;;;;;;;;;;;;49.10;0.51;97200.47;6375155;27;19923;-66
2022/05/03 07:10:17;;;;;;;;;;;;;;;47.69;1.31;97188.44;6374632;27;20327;-64
2022/05/03 07:13:23;;;;;;;;;;;;;;;47.80;1.14;97188.13;6374130;27;20411;-65
2022/05/03 07:16:24;;;;;;;;;;;;;;;48.93;0.78;97191.09;6375221;27;19955;-65
2022/05/03 07:22:49;;;;;;;;;;;;;;;47.22;1.27;97173.63;6373723;27;19946;-65
2022/05/03 07:25:53;;;;;;;;;;;;;;;46.55;0.91;97163.81;6374460;27;20029;-66
2022/05/03 07:28:59;;;;;;;;;;;;;;;46.51;1.13;97165.59;6374683;27;19923;-65
2022/05/03 07:32:00;;;;;;;;;;;;;;;45.87;1.38;97164.09;6374475;27;19930;-65
2022/05/03 07:35:02;;;;;;;;;;;;;;;46.07;0.95;97161.91;6373684;27;19946;-65
2022/05/03 07:38:06;;;;;;;;;;;;;;;43.98;1.36;97154.75;6356888;27;19923;-66
2022/05/03 07:41:07;;;;;;;;;;;;;;;43.17;1.80;97149.59;6373533;27;19927;-65
2022/05/03 07:44:09;;;;;;;;;;;;;;;41.04;2.21;97149.97;6372695;27;20026;-65
2022/05/03 07:47:10;;;;;;;;;;;;;;;41.38;2.05;97140.84;6355477;27;19966;-64
2022/05/03 07:50:11;;;;;;;;;;;;;;;43.00;1.58;97135.47;6355467;27;19960;-65
2022/05/03 07:53:13;;;;;;;;;;;;;;;44.61;1.65;97144.78;6373374;27;19945;-65
2022/05/03 07:56:19;;;;;;;;;;;;;;;44.84;1.16;97137.31;6373619;27;19923;-64
2022/05/03 07:59:25;;;;;;;;;;;;;;;44.26;1.83;97127.81;6374206;27;19920;-65
2022/05/03 08:02:31;;;;;;;;;;;;;;;44.44;1.56;97114.94;6374034;27;20300;-65
2022/05/03 08:05:32;;;;;;;;;;;;;;;44.75;1.21;97117.81;6373410;27;19930;-65
2022/05/03 08:08:35;;;;;;;;;;;;;;;44.24;1.63;97112.59;6374184;27;20367;-65
2022/05/03 08:11:38;;;;;;;;;;;;;;;44.76;1.53;97118.63;6373843;27;20019;-65
2022/05/03 08:14:40;;;;;;;;;;;;;;;44.18;1.35;97114.69;6372779;27;19927;-65
2022/05/03 08:17:41;;;;;;;;;;;;;;;44.01;1.37;97108.97;6372471;27;20004;-66
2022/05/03 08:20:42;;;;;;;;;;;;;;;44.30;1.79;97108.59;6372696;27;19923;-65
2022/05/03 08:23:45;;;;;;;;;;;;;;;44.53;1.24;97092.81;6373539;27;19923;-65
2022/05/03 08:26:49;;;;;;;;;;;;;;;43.25;1.62;97101.00;6373436;27;19923;-65
2022/05/03 08:29:53;;;;;;;;;;;;;;;43.54;1.61;97109.00;6373457;27;20403;-64
2022/05/03 08:32:57;;;;;;;;;;;;;;;44.70;1.39;97114.31;6373437;27;19927;-64
2022/05/03 08:36:00;;;;;;;;;;;;;;;43.86;1.18;97107.31;6373227;27;20438;-64
2022/05/03 08:42:24;;;;;;;;;;;;;;;43.63;1.46;97098.09;6373071;27;20393;-65
2022/05/03 08:45:32;;;;;;;;;;;;;;;45.41;1.33;97104.22;6372839;27;19927;-66
2022/05/03 08:48:35;;;;;;;;;;;;;;;46.71;1.05;97092.63;6371724;27;19923;-65
2022/05/03 08:51:42;;;;;;;;;;;;;;;46.53;0.91;97086.19;6372895;27;19923;-66
2022/05/03 08:54:45;;;;;;;;;;;;;;;44.06;0.94;97079.16;6372113;27;20253;-65
2022/05/03 08:57:48;;;;;;;;;;;;;;;40.34;2.10;97066.66;6370958;27;19930;-63
2022/05/03 09:00:49;;;;;;;;;;;;;;;38.95;2.68;97068.25;6372667;27;19930;-66
2022/05/03 09:03:52;;;;;;;;;;;;;;;39.19;2.28;97061.06;6372343;27;19923;-65
2022/05/03 09:06:53;;;;;;;;;;;;;;;39.43;2.26;97057.69;6371486;27;19923;-65
2022/05/03 09:10:13;;;;;;;;;;;;;;;39.64;2.31;97058.47;6372440;27;19928;-65
2022/05/03 09:13:19;;;;;;;;;;;;;;;39.39;2.47;97057.44;6353554;27;20415;-66
2022/05/03 09:16:21;;;;;;;;;;;;;;;39.16;2.14;97063.53;6372034;27;20020;-64
2022/05/03 09:19:24;;;;;;;;;;;;;;;38.99;2.45;97055.59;6353618;27;19984;-67
2022/05/03 09:25:47;;;;;;;;;;;;;;;38.20;2.44;97038.50;6371018;27;20433;-65
2022/05/03 09:28:49;;;;;;;;;;;;;;;36.76;2.59;97044.38;6370474;27;19924;-66
2022/05/03 09:31:54;;;;;;;;;;;;;;;34.96;3.53;97029.72;6371641;27;19923;-66
2022/05/03 09:34:57;;;;;;;;;;;;;;;35.17;3.46;97028.97;6370794;27;19923;-64
2022/05/03 09:37:59;;;;;;;;;;;;;;;35.96;3.17;97035.97;6371025;27;19924;-64
2022/05/03 09:41:10;;;;;;;;;;;;;;;34.11;3.86;97020.69;6370789;27;20288;-65
2022/05/03 09:44:13;;;;;;;;;;;;;;;32.42;4.37;97019.75;6370779;27;20376;-64
2022/05/03 09:47:14;;;;;;;;;;;;;;;32.27;4.23;97012.03;6370913;27;19924;-64
2022/05/03 09:50:28;;;;;;;;;;;;;;;32.43;4.27;97016.78;6371821;27;19924;-64
2022/05/03 09:53:29;;;;;;;;;;;;;;;32.20;4.78;97012.13;6352850;27;19923;-65
2022/05/03 09:56:35;;;;;;;;;;;;;;;32.46;4.21;96999.19;6370689;27;20304;-64
2022/05/03 09:59:39;;;;;;;;;;;;;;;31.90;4.68;97003.16;6370878;27;19946;-64
2022/05/03 10:02:43;;;;;;;;;;;;;;;32.46;4.26;96993.72;6370792;27;19932;-65
2022/05/03 10:05:47;;;;;;;;;;;;;;;32.92;4.59;96992.06;6370764;28;20281;-65
2022/05/03 10:08:51;;;;;;;;;;;;;;;33.62;4.21;96993.00;6371706;27;19931;-67
2022/05/03 10:11:54;;;;;;;;;;;;;;;35.19;3.78;97010.41;6375986;27;19923;-65
2022/05/03 10:14:55;;;;;;;;;;;;;;;34.91;3.71;97002.34;6375995;27;20007;-64
2022/05/03 10:21:25;;;;;;;;;;;;;;;33.15;4.44;96984.94;6376490;27;19923;-66
2022/05/03 10:24:31;;;;;;;;;;;;;;;34.33;3.98;96988.00;6376513;27;20442;-64
2022/05/03 10:27:52;;;;;;;;;;;;;;;34.46;3.96;96984.13;6341100;27;19962;-64
2022/05/03 10:31:05;;;;;;;;;;;;;;;34.05;4.31;96976.06;6375928;27;19923;-65
2022/05/03 10:34:26;;;;;;;;;;;;;;;33.91;4.19;96967.34;6375296;27;19929;-64
2022/05/03 10:37:28;;;;;;;;;;;;;;;34.28;4.04;96961.44;6375055;27;19923;-65
2022/05/03 10:40:39;;;;;;;;;;;;;;;33.83;4.10;96964.19;6376274;27;19924;-63
2022/05/03 10:43:42;;;;;;;;;;;;;;;32.58;4.39;96958.31;6375320;27;20328;-64
2022/05/03 10:46:49;;;;;;;;;;;;;;;32.64;4.74;96950.03;6375457;27;19923;-64
2022/05/03 10:50:10;;;;;;;;;;;;;;;32.90;4.69;96961.50;6357209;27;19923;-64
2022/05/03 10:53:14;;;;;;;;;;;;;;;32.23;4.76;96950.94;6375879;27;20345;-64
2022/05/03 10:56:18;;;;;;;;;;;;;;;30.79;5.26;96946.19;6375214;27;20400;-64
2022/05/03 10:59:22;;;;;;;;;;;;;;;30.26;5.47;96941.25;6374509;27;19923;-65
2022/05/03 11:02:23;;;;;;;;;;;;;;;30.04;5.65;96937.28;6356701;27;20308;-65
2022/05/03 11:05:29;;;;;;;;;;;;;;;30.10;5.58;96930.97;6375743;27;19924;-65
2022/05/03 11:08:30;;;;;;;;;;;;;;;30.31;5.51;96938.72;6375221;27;20400;-66
2022/05/03 11:11:42;;;;;;;;;;;;;;;29.26;5.92;96927.53;6374410;27;19946;-64
2022/05/03 11:14:46;;;;;;;;;;;;;;;27.29;6.96;96919.19;6375245;27;20021;-64
2022/05/03 11:17:51;;;;;;;;;;;;;;;26.74;7.10;96914.78;6374850;27;19997;-64
2022/05/03 11:20:52;;;;;;;;;;;;;;;26.77;7.00;96915.19;6374507;27;19946;-64
2022/05/03 11:23:54;;;;;;;;;;;;;;;25.86;7.38;96922.47;6375094;27;19931;-65
2022/05/03 11:26:56;;;;;;;;;;;;;;;24.28;7.95;96901.53;6375123;27;19923;-65
2022/05/03 11:30:03;;;;;;;;;;;;;;;23.98;8.40;96896.97;6374837;27;19919;-65
2022/05/03 11:33:05;;;;;;;;;;;;;;;23.37;8.97;96900.66;6373741;27;19946;-66
2022/05/03 11:36:09;;;;;;;;;;;;;;;23.33;9.42;96899.34;6374716;27;19945;-64
2022/05/03 11:39:13;;;;;;;;;;;;;;;23.94;8.37;96894.81;6374599;27;19923;-66
2022/05/03 11:42:17;;;;;;;;;;;;;;;24.23;8.55;96896.69;6374644;27;19923;-65
2022/05/03 11:45:19;;;;;;;;;;;;;;;23.85;8.74;96885.16;6372905;27;19923;-64
2022/05/03 11:48:23;;;;;;;;;;;;;;;23.63;8.66;96887.66;6374698;27;20079;-64
2022/05/03 11:58:06;;;;;;;;;;;;;;;23.12;8.93;96882.00;6374361;27;20415;-65
2022/05/03 12:01:11;;;;;;;;;;;;;;;23.42;8.85;96879.47;6373256;27;20388;-65
2022/05/03 12:04:14;;;;;;;;;;;;;;;23.64;8.52;96870.56;6373105;27;20388;-66
2022/05/03 12:07:19;;;;;;;;;;;;;;;23.87;8.71;96877.75;6374015;27;19923;-66
2022/05/03 12:10:37;;;;;;;;;;;;;;;23.93;8.82;96867.09;6374431;27;19919;-65
2022/05/03 12:13:38;;;;;;;;;;;;;;;23.33;9.11;96877.88;6373693;27;19923;-65
2022/05/03 12:16:39;;;;;;;;;;;;;;;23.24;9.02;96866.31;6372783;27;20415;-64
2022/05/03 12:19:44;;;;;;;;;;;;;;;23.55;8.93;96866.25;6373555;27;20392;-65
2022/05/03 12:23:05;;;;;;;;;;;;;;;23.74;8.72;96856.88;6373707;27;19930;-65
2022/05/03 12:26:20;;;;;;;;;;;;;;;23.26;9.03;96862.44;6372625;27;20407;-64
2022/05/03 12:29:26;;;;;;;;;;;;;;;22.38;9.47;96855.56;6373253;27;20029;-64
2022/05/03 12:32:33;;;;;;;;;;;;;;;22.34;9.62;96851.56;6371083;27;19923;-64
2022/05/03 12:35:38;;;;;;;;;;;;;;;22.14;9.56;96847.59;6373586;27;20331;-65
2022/05/03 12:38:49;;;;;;;;;;;;;;;22.43;9.48;96852.38;6372361;27;19930;-66
2022/05/03 12:41:55;;;;;;;;;;;;;;;23.11;9.50;96845.47;6373439;27;19929;-65
2022/05/03 12:44:59;;;;;;;;;;;;;;;22.75;9.69;96855.88;6338469;27;19928;-64
2022/05/03 12:48:00;;;;;;;;;;;;;;;22.27;9.76;96847.06;6372974;27;19931;-65
2022/05/03 12:51:02;;;;;;;;;;;;;;;21.61;10.35;96852.53;6371896;27;20273;-65
2022/05/03 12:54:07;;;;;;;;;;;;;;;20.68;10.88;96846.59;6372744;27;19953;-66
2022/05/03 13:00:32;;;;;;;;;;;;;;;19.71;11.35;96846.81;6371350;27;19929;-65
2022/05/03 13:03:33;;;;;;;;;;;;;;;19.47;11.32;96835.91;6372376;27;19927;-65
2022/05/03 13:06:35;;;;;;;;;;;;;;;19.33;11.44;96828.47;6372000;27;19923;-65
2022/05/03 13:09:38;;;;;;;;;;;;;;;19.44;11.11;96833.56;6372517;27;19924;-65
2022/05/03 13:12:39;;;;;;;;;;;;;;;19.39;11.63;96834.06;6372259;27;20069;-64
2022/05/03 13:15:40;;;;;;;;;;;;;;;19.10;11.82;96831.63;6372160;27;19923;-66
2022/05/03 13:18:44;;;;;;;;;;;;;;;18.77;12.05;96826.00;6372048;27;19937;-65
2022/05/03 13:21:45;;;;;;;;;;;;;;;18.80;12.39;96820.38;6371970;27;20330;-64
2022/05/03 13:24:46;;;;;;;;;;;;;;;18.34;12.27;96826.66;6371993;27;19923;-65
2022/05/03 13:27:50;;;;;;;;;;;;;;;17.99;12.70;96827.41;6371572;27;19963;-65
2022/05/03 13:30:51;;;;;;;;;;;;;;;17.82;12.56;96821.88;6371292;27;20296;-64
2022/05/03 13:33:52;;;;;;;;;;;;;;;18.13;12.79;96818.94;6353669;27;19924;-65
2022/05/03 13:40:29;;;;;;;;;;;;;;;18.50;12.66;96823.34;6371570;27;19923;-64
2022/05/03 13:43:31;;;;;;;;;;;;;;;18.23;13.18;96827.72;6371302;27;19930;-64
2022/05/03 13:46:38;;;;;;;;;;;;;;;17.77;13.47;96826.75;6353939;27;19931;-63
2022/05/03 13:49:40;;;;;;;;;;;;;;;17.42;13.57;96817.63;6371520;27;19930;-64
2022/05/03 13:52:41;;;;;;;;;;;;;;;17.47;13.68;96815.38;6370764;27;19928;-64
2022/05/03 13:55:42;;;;;;;;;;;;;;;17.24;13.96;96819.34;6371413;27;20303;-66
2022/05/03 13:58:47;;;;;;;;;;;;;;;16.86;14.07;96818.38;6371677;27;19949;-63
2022/05/03 14:01:48;;;;;;;;;;;;;;;16.64;14.07;96797.34;6371363;27;19923;-65
2022/05/03 14:04:52;;;;;;;;;;;;;;;16.59;14.30;96801.28;6353554;28;20312;-66
2022/05/03 14:07:53;;;;;;;;;;;;;;;16.70;14.22;96810.06;6370544;28;20009;-65
2022/05/03 14:10:54;;;;;;;;;;;;;;;16.63;14.36;96815.13;6371182;28;19923;-65
2022/05/03 14:13:58;;;;;;;;;;;;;;;16.68;14.54;96806.75;6370312;28;20418;-64
2022/05/03 14:16:59;;;;;;;;;;;;;;;16.75;14.65;96807.84;6370818;28;19946;-65
2022/05/03 14:20:00;;;;;;;;;;;;;;;16.32;14.74;96795.78;6370642;28;19923;-64
2022/05/03 14:23:02;;;;;;;;;;;;;;;15.98;14.92;96801.41;6370095;28;19923;-65
2022/05/03 14:26:03;;;;;;;;;;;;;;;15.81;14.99;96802.06;6370529;28;20320;-64
2022/05/03 14:29:07;;;;;;;;;;;;;;;15.82;15.29;96809.03;6370376;28;19923;-64
2022/05/03 14:32:08;;;;;;;;;;;;;;;15.82;15.30;96799.25;6370950;28;19927;-64
2022/05/03 14:35:12;;;;;;;;;;;;;;;15.62;15.61;96803.59;6352267;28;20309;-65
2022/05/03 14:38:16;;;;;;;;;;;;;;;15.46;15.64;96809.41;6370798;28;20345;-64
2022/05/03 14:41:19;;;;;;;;;;;;;;;15.36;15.60;96805.84;6371035;28;19930;-65
2022/05/03 14:44:23;;;;;;;;;;;;;;;15.15;15.85;96800.56;6370797;28;19923;-64
2022/05/03 14:47:26;;;;;;;;;;;;;;;15.37;15.71;96801.38;6370313;28;20378;-64
2022/05/03 14:50:30;;;;;;;;;;;;;;;14.99;15.79;96810.78;6370013;28;20012;-64
2022/05/03 14:53:31;;;;;;;;;;;;;;;14.90;15.74;96795.66;6351437;28;19923;-64
2022/05/03 15:03:13;;;;;;;;;;;;;;;14.11;16.41;96799.38;6374530;27;19923;-64
2022/05/03 15:06:16;;;;;;;;;;;;;;;14.23;16.58;96791.41;6375521;27;20379;-63
2022/05/03 15:09:20;;;;;;;;;;;;;;;13.75;16.86;96802.28;6375594;27;20022;-64
2022/05/03 15:12:21;;;;;;;;;;;;;;;13.68;17.00;96796.66;6374424;27;19923;-65
2022/05/03 15:15:22;;;;;;;;;;;;;;;13.49;17.22;96802.53;6374463;27;19930;-64
2022/05/03 15:18:28;;;;;;;;;;;;;;;13.66;17.26;96806.50;6375195;27;20396;-65
2022/05/03 15:21:30;;;;;;;;;;;;;;;13.42;17.45;96799.53;6374130;27;20403;-65
2022/05/03 15:24:36;;;;;;;;;;;;;;;13.13;17.62;96803.53;6374880;27;19924;-65
2022/05/03 15:27:38;;;;;;;;;;;;;;;12.94;17.82;96799.66;6374118;27;20377;-64
2022/05/03 15:30:42;;;;;;;;;;;;;;;12.88;17.81;96802.75;6373900;27;19923;-65
2022/05/03 15:33:43;;;;;;;;;;;;;;;12.89;17.85;96803.59;6373881;27;20377;-65
2022/05/03 15:36:44;;;;;;;;;;;;;;;12.82;18.13;96808.47;6374168;27;19996;-65
2022/05/03 15:39:49;;;;;;;;;;;;;;;12.59;18.12;96803.09;6373882;27;20388;-67
2022/05/03 15:42:51;;;;;;;;;;;;;;;12.61;18.31;96816.22;6374202;27;19930;-66
2022/05/03 15:45:52;;;;;;;;;;;;;;;12.67;18.37;96810.47;6374184;27;19930;-66
2022/05/03 15:48:56;;;;;;;;;;;;;;;12.44;18.52;96817.44;6373619;27;19924;-64
2022/05/03 15:51:57;;;;;;;;;;;;;;;12.18;18.63;96821.16;6374530;27;19923;-66
2022/05/03 15:54:58;;;;;;;;;;;;;;;12.22;18.88;96826.06;6356057;27;19924;-65
2022/05/03 15:58:02;;;;;;;;;;;;;;;12.11;18.99;96833.91;6374408;27;20312;-65
2022/05/03 16:01:03;;;;;;;;;;;;;;;11.92;19.09;96834.41;6373579;27;19930;-64
2022/05/03 16:04:04;;;;;;;;;;;;;;;11.76;19.18;96836.41;6373745;27;19937;-66
2022/05/03 16:07:10;;;;;;;;;;;;;;;11.78;19.29;96837.13;6373843;27;19923;-64
2022/05/03 16:10:13;;;;;;;;;;;;;;;11.63;19.57;96837.25;6373142;27;19923;-67
2022/05/03 16:13:19;;;;;;;;;;;;;;;11.38;19.97;96839.88;6374077;27;20400;-65
2022/05/03 16:16:21;;;;;;;;;;;;;;;11.40;20.00;96838.81;6373654;27;19924;-65
2022/05/03 16:19:22;;;;;;;;;;;;;;;11.17;20.25;96843.03;6372710;27;20273;-65
2022/05/03 16:22:26;;;;;;;;;;;;;;;11.10;20.31;96838.31;6373750;27;19924;-64
2022/05/03 16:25:30;;;;;;;;;;;;;;;11.00;20.43;96848.59;6373510;27;19924;-65
2022/05/03 16:28:32;;;;;;;;;;;;;;;10.75;20.69;96847.59;6355408;27;20392;-66
2022/05/03 16:31:38;;;;;;;;;;;;;;;10.69;21.03;96848.00;6373543;27;20021;-65
2022/05/03 16:34:40;;;;;;;;;;;;;;;10.71;21.14;96845.28;6373608;27;19931;-65
2022/05/03 16:44:25;;;;;;;;;;;;;;;10.42;21.40;96848.03;6373154;27;20401;-64
2022/05/03 16:47:31;;;;;;;;;;;;;;;10.23;21.67;96856.22;6373015;27;19923;-64
2022/05/03 16:50:36;;;;;;;;;;;;;;;10.19;21.95;96860.00;6372528;27;19931;-64
2022/05/03 16:53:40;;;;;;;;;;;;;;;9.90;22.07;96865.25;6372926;27;19923;-64
2022/05/03 16:56:41;;;;;;;;;;;;;;;9.87;22.17;96860.19;6372341;27;20406;-65